sensor_id;sensor_type;location;lat;lon;timestamp;temperature;humidity
7738;DHT22;29398;45.328;5.558;2022-07-06T00:00:16;20.50;73.10
7738;DHT22;29398;45.328;5.558;2022-07-06T00:01:19;20.50;73.10
7738;DHT22;29398;45.328;5.558;2022-07-06T00:02:20;20.50;73.00
7738;DHT22;29398;45.328;5.558;2022-07-06T00:03:22;20.50;73.00
7738;DHT22;29398;45.328;5.558;2022-07-06T00:04:24;20.50;73.00
7738;DHT22;29398;45.328;5.558;2022-07-06T00:05:26;20.50;72.40
7738;DHT22;29398;45.328;5.558;2022-07-06T00:06:27;20.50;73.00
7738;DHT22;29398;45.328;5.558;2022-07-06T00:07:29;20.50;73.90
7738;DHT22;29398;45.328;5.558;2022-07-06T00:08:31;20.50;74.20
7738;DHT22;29398;45.328;5.558;2022-07-06T00:09:33;20.50;73.60
7738;DHT22;29398;45.328;5.558;2022-07-06T00:10:35;20.40;73.50
7738;DHT22;29398;45.328;5.558;2022-07-06T00:11:37;20.40;73.90
7738;DHT22;29398;45.328;5.558;2022-07-06T00:12:39;20.40;73.50
7738;DHT22;29398;45.328;5.558;2022-07-06T00:13:41;20.40;74.20
7738;DHT22;29398;45.328;5.558;2022-07-06T00:14:43;20.30;73.90
7738;DHT22;29398;45.328;5.558;2022-07-06T00:15:46;20.30;74.10
7738;DHT22;29398;45.328;5.558;2022-07-06T00:16:48;20.30;75.20
7738;DHT22;29398;45.328;5.558;2022-07-06T00:17:49;20.30;74.70
7738;DHT22;29398;45.328;5.558;2022-07-06T00:18:52;20.30;75.30
7738;DHT22;29398;45.328;5.558;2022-07-06T00:19:53;20.30;75.00
7738;DHT22;29398;45.328;5.558;2022-07-06T00:20:56;20.20;75.10
7738;DHT22;29398;45.328;5.558;2022-07-06T00:21:57;20.20;75.10
7738;DHT22;29398;45.328;5.558;2022-07-06T00:22:59;20.30;75.30
7738;DHT22;29398;45.328;5.558;2022-07-06T00:24:00;20.30;75.00
7738;DHT22;29398;45.328;5.558;2022-07-06T00:25:03;20.30;75.30
7738;DHT22;29398;45.328;5.558;2022-07-06T00:26:04;20.30;75.20
7738;DHT22;29398;45.328;5.558;2022-07-06T00:27:07;20.20;75.40
7738;DHT22;29398;45.328;5.558;2022-07-06T00:28:08;20.20;75.50
7738;DHT22;29398;45.328;5.558;2022-07-06T00:29:10;20.20;75.50
7738;DHT22;29398;45.328;5.558;2022-07-06T00:30:12;20.20;75.80
7738;DHT22;29398;45.328;5.558;2022-07-06T00:31:15;20.00;76.40
7738;DHT22;29398;45.328;5.558;2022-07-06T00:32:17;20.00;76.00
7738;DHT22;29398;45.328;5.558;2022-07-06T00:33:19;20.00;76.30
7738;DHT22;29398;45.328;5.558;2022-07-06T00:34:20;19.90;76.70
7738;DHT22;29398;45.328;5.558;2022-07-06T00:35:23;19.90;76.60
7738;DHT22;29398;45.328;5.558;2022-07-06T00:36:24;19.80;76.70
7738;DHT22;29398;45.328;5.558;2022-07-06T00:37:26;19.80;76.80
7738;DHT22;29398;45.328;5.558;2022-07-06T00:38:28;19.80;76.70
7738;DHT22;29398;45.328;5.558;2022-07-06T00:39:31;19.80;76.50
7738;DHT22;29398;45.328;5.558;2022-07-06T00:40:33;19.80;76.30
7738;DHT22;29398;45.328;5.558;2022-07-06T00:41:34;19.90;76.40
7738;DHT22;29398;45.328;5.558;2022-07-06T00:42:40;19.90;76.20
7738;DHT22;29398;45.328;5.558;2022-07-06T00:43:48;19.90;76.20
7738;DHT22;29398;45.328;5.558;2022-07-06T00:44:51;19.90;76.30
7738;DHT22;29398;45.328;5.558;2022-07-06T00:45:53;19.90;76.30
7738;DHT22;29398;45.328;5.558;2022-07-06T00:46:56;19.90;76.00
7738;DHT22;29398;45.328;5.558;2022-07-06T00:47:59;20.00;76.50
7738;DHT22;29398;45.328;5.558;2022-07-06T00:49:00;19.90;76.30
7738;DHT22;29398;45.328;5.558;2022-07-06T00:50:03;19.90;76.60
7738;DHT22;29398;45.328;5.558;2022-07-06T00:51:19;19.90;76.40
7738;DHT22;29398;45.328;5.558;2022-07-06T00:52:24;19.90;77.10
7738;DHT22;29398;45.328;5.558;2022-07-06T00:53:25;19.90;76.90
7738;DHT22;29398;45.328;5.558;2022-07-06T00:54:30;19.80;77.00
7738;DHT22;29398;45.328;5.558;2022-07-06T00:55:33;19.80;77.30
7738;DHT22;29398;45.328;5.558;2022-07-06T00:56:35;19.80;77.00
7738;DHT22;29398;45.328;5.558;2022-07-06T00:57:39;19.80;77.00
7738;DHT22;29398;45.328;5.558;2022-07-06T00:58:40;19.80;77.10
7738;DHT22;29398;45.328;5.558;2022-07-06T00:59:43;19.80;77.30
7738;DHT22;29398;45.328;5.558;2022-07-06T01:00:44;19.70;77.10
7738;DHT22;29398;45.328;5.558;2022-07-06T01:01:46;19.70;77.40
7738;DHT22;29398;45.328;5.558;2022-07-06T01:02:50;19.70;77.50
7738;DHT22;29398;45.328;5.558;2022-07-06T01:03:52;19.70;77.50
7738;DHT22;29398;45.328;5.558;2022-07-06T01:04:53;19.70;77.80
7738;DHT22;29398;45.328;5.558;2022-07-06T01:05:55;19.70;77.70
7738;DHT22;29398;45.328;5.558;2022-07-06T01:06:57;19.70;77.40
7738;DHT22;29398;45.328;5.558;2022-07-06T01:07:59;19.70;77.40
7738;DHT22;29398;45.328;5.558;2022-07-06T01:09:02;19.70;77.60
7738;DHT22;29398;45.328;5.558;2022-07-06T01:10:06;19.70;78.10
7738;DHT22;29398;45.328;5.558;2022-07-06T01:11:08;19.70;77.80
7738;DHT22;29398;45.328;5.558;2022-07-06T01:12:11;19.70;77.80
7738;DHT22;29398;45.328;5.558;2022-07-06T01:13:12;19.60;77.80
7738;DHT22;29398;45.328;5.558;2022-07-06T01:14:14;19.60;78.40
7738;DHT22;29398;45.328;5.558;2022-07-06T01:15:18;19.60;78.10
7738;DHT22;29398;45.328;5.558;2022-07-06T01:16:20;19.60;78.10
7738;DHT22;29398;45.328;5.558;2022-07-06T01:17:22;19.50;78.00
7738;DHT22;29398;45.328;5.558;2022-07-06T01:18:27;19.50;78.00
7738;DHT22;29398;45.328;5.558;2022-07-06T01:19:28;19.50;78.10
7738;DHT22;29398;45.328;5.558;2022-07-06T01:20:31;19.50;78.80
7738;DHT22;29398;45.328;5.558;2022-07-06T01:21:32;19.50;78.20
7738;DHT22;29398;45.328;5.558;2022-07-06T01:22:34;19.50;79.50
7738;DHT22;29398;45.328;5.558;2022-07-06T01:23:39;19.50;78.80
7738;DHT22;29398;45.328;5.558;2022-07-06T01:24:41;19.50;78.90
7738;DHT22;29398;45.328;5.558;2022-07-06T01:25:43;19.50;78.90
7738;DHT22;29398;45.328;5.558;2022-07-06T01:26:47;19.40;78.90
7738;DHT22;29398;45.328;5.558;2022-07-06T01:27:48;19.50;79.10
7738;DHT22;29398;45.328;5.558;2022-07-06T01:28:51;19.50;79.10
7738;DHT22;29398;45.328;5.558;2022-07-06T01:29:52;19.50;79.00
7738;DHT22;29398;45.328;5.558;2022-07-06T01:30:54;19.50;79.10
7738;DHT22;29398;45.328;5.558;2022-07-06T01:31:55;19.50;79.10
7738;DHT22;29398;45.328;5.558;2022-07-06T01:32:59;19.50;79.20
7738;DHT22;29398;45.328;5.558;2022-07-06T01:34:01;19.40;78.80
7738;DHT22;29398;45.328;5.558;2022-07-06T01:35:05;19.40;78.40
7738;DHT22;29398;45.328;5.558;2022-07-06T01:36:09;19.40;78.20
7738;DHT22;29398;45.328;5.558;2022-07-06T01:37:11;19.50;78.00
7738;DHT22;29398;45.328;5.558;2022-07-06T01:38:12;19.50;77.70
7738;DHT22;29398;45.328;5.558;2022-07-06T01:39:16;19.40;77.70
7738;DHT22;29398;45.328;5.558;2022-07-06T01:40:17;19.40;78.00
7738;DHT22;29398;45.328;5.558;2022-07-06T01:41:20;19.30;79.20
7738;DHT22;29398;45.328;5.558;2022-07-06T01:42:21;19.20;80.50
7738;DHT22;29398;45.328;5.558;2022-07-06T01:43:23;19.10;80.10
7738;DHT22;29398;45.328;5.558;2022-07-06T01:44:24;19.00;81.20
7738;DHT22;29398;45.328;5.558;2022-07-06T01:45:31;19.00;80.50
7738;DHT22;29398;45.328;5.558;2022-07-06T01:46:33;19.00;80.70
7738;DHT22;29398;45.328;5.558;2022-07-06T01:47:35;19.00;80.90
7738;DHT22;29398;45.328;5.558;2022-07-06T01:48:37;19.00;80.80
7738;DHT22;29398;45.328;5.558;2022-07-06T01:49:39;19.00;80.90
7738;DHT22;29398;45.328;5.558;2022-07-06T01:50:40;19.00;80.70
7738;DHT22;29398;45.328;5.558;2022-07-06T01:51:44;19.00;80.70
7738;DHT22;29398;45.328;5.558;2022-07-06T01:52:45;18.90;80.70
7738;DHT22;29398;45.328;5.558;2022-07-06T01:53:48;19.00;80.50
7738;DHT22;29398;45.328;5.558;2022-07-06T01:54:51;19.00;80.40
7738;DHT22;29398;45.328;5.558;2022-07-06T01:55:54;18.90;80.50
7738;DHT22;29398;45.328;5.558;2022-07-06T01:56:56;18.90;80.30
7738;DHT22;29398;45.328;5.558;2022-07-06T01:57:58;18.90;80.50
7738;DHT22;29398;45.328;5.558;2022-07-06T01:59:00;18.90;80.30
7738;DHT22;29398;45.328;5.558;2022-07-06T02:00:05;18.80;80.40
7738;DHT22;29398;45.328;5.558;2022-07-06T02:01:15;18.90;80.50
7738;DHT22;29398;45.328;5.558;2022-07-06T02:02:17;18.80;80.50
7738;DHT22;29398;45.328;5.558;2022-07-06T02:03:19;18.80;80.10
7738;DHT22;29398;45.328;5.558;2022-07-06T02:04:21;18.80;79.90
7738;DHT22;29398;45.328;5.558;2022-07-06T02:05:22;18.80;80.20
7738;DHT22;29398;45.328;5.558;2022-07-06T02:06:24;18.80;80.00
7738;DHT22;29398;45.328;5.558;2022-07-06T02:07:27;18.70;80.10
7738;DHT22;29398;45.328;5.558;2022-07-06T02:08:29;18.70;80.20
7738;DHT22;29398;45.328;5.558;2022-07-06T02:09:30;18.70;80.50
7738;DHT22;29398;45.328;5.558;2022-07-06T02:10:32;18.70;80.40
7738;DHT22;29398;45.328;5.558;2022-07-06T02:11:33;18.70;80.70
7738;DHT22;29398;45.328;5.558;2022-07-06T02:12:35;18.70;80.40
7738;DHT22;29398;45.328;5.558;2022-07-06T02:13:37;18.80;80.80
7738;DHT22;29398;45.328;5.558;2022-07-06T02:14:41;18.80;81.10
7738;DHT22;29398;45.328;5.558;2022-07-06T02:15:42;18.80;80.20
7738;DHT22;29398;45.328;5.558;2022-07-06T02:16:45;18.80;80.30
7738;DHT22;29398;45.328;5.558;2022-07-06T02:17:46;18.90;80.30
7738;DHT22;29398;45.328;5.558;2022-07-06T02:18:48;18.90;81.00
7738;DHT22;29398;45.328;5.558;2022-07-06T02:19:49;18.90;80.90
7738;DHT22;29398;45.328;5.558;2022-07-06T02:20:51;18.90;81.60
7738;DHT22;29398;45.328;5.558;2022-07-06T02:21:52;18.90;81.30
7738;DHT22;29398;45.328;5.558;2022-07-06T02:22:56;18.80;81.30
7738;DHT22;29398;45.328;5.558;2022-07-06T02:23:57;18.80;81.50
7738;DHT22;29398;45.328;5.558;2022-07-06T02:25:00;18.80;82.10
7738;DHT22;29398;45.328;5.558;2022-07-06T02:26:01;18.80;81.50
7738;DHT22;29398;45.328;5.558;2022-07-06T02:27:04;18.80;81.50
7738;DHT22;29398;45.328;5.558;2022-07-06T02:28:05;18.80;81.60
7738;DHT22;29398;45.328;5.558;2022-07-06T02:29:08;18.70;81.40
7738;DHT22;29398;45.328;5.558;2022-07-06T02:30:10;18.70;81.60
7738;DHT22;29398;45.328;5.558;2022-07-06T02:31:12;18.70;81.80
7738;DHT22;29398;45.328;5.558;2022-07-06T02:32:14;18.80;81.70
7738;DHT22;29398;45.328;5.558;2022-07-06T02:33:16;18.80;81.70
7738;DHT22;29398;45.328;5.558;2022-07-06T02:34:17;18.80;81.50
7738;DHT22;29398;45.328;5.558;2022-07-06T02:35:19;18.70;81.40
7738;DHT22;29398;45.328;5.558;2022-07-06T02:36:21;18.70;82.00
7738;DHT22;29398;45.328;5.558;2022-07-06T02:37:23;18.70;81.60
7738;DHT22;29398;45.328;5.558;2022-07-06T02:38:25;18.70;81.80
7738;DHT22;29398;45.328;5.558;2022-07-06T02:39:28;18.70;82.10
7738;DHT22;29398;45.328;5.558;2022-07-06T02:40:29;18.80;82.30
7738;DHT22;29398;45.328;5.558;2022-07-06T02:41:31;18.70;82.30
7738;DHT22;29398;45.328;5.558;2022-07-06T02:42:33;18.70;82.40
7738;DHT22;29398;45.328;5.558;2022-07-06T02:43:37;18.70;82.30
7738;DHT22;29398;45.328;5.558;2022-07-06T02:44:39;18.70;82.10
7738;DHT22;29398;45.328;5.558;2022-07-06T02:45:41;18.70;82.20
7738;DHT22;29398;45.328;5.558;2022-07-06T02:46:44;18.70;82.40
7738;DHT22;29398;45.328;5.558;2022-07-06T02:47:46;18.70;82.60
7738;DHT22;29398;45.328;5.558;2022-07-06T02:48:49;18.70;82.50
7738;DHT22;29398;45.328;5.558;2022-07-06T02:49:52;18.60;82.80
7738;DHT22;29398;45.328;5.558;2022-07-06T02:50:53;18.60;82.80
7738;DHT22;29398;45.328;5.558;2022-07-06T02:51:56;18.60;83.30
7738;DHT22;29398;45.328;5.558;2022-07-06T02:52:57;18.60;83.20
7738;DHT22;29398;45.328;5.558;2022-07-06T02:54:03;18.60;83.20
7738;DHT22;29398;45.328;5.558;2022-07-06T02:55:06;18.50;83.10
7738;DHT22;29398;45.328;5.558;2022-07-06T02:56:08;18.50;83.20
7738;DHT22;29398;45.328;5.558;2022-07-06T02:57:10;18.50;83.30
7738;DHT22;29398;45.328;5.558;2022-07-06T02:58:12;18.50;83.40
7738;DHT22;29398;45.328;5.558;2022-07-06T02:59:15;18.40;83.50
7738;DHT22;29398;45.328;5.558;2022-07-06T03:00:17;18.40;83.20
7738;DHT22;29398;45.328;5.558;2022-07-06T03:01:20;18.40;83.70
7738;DHT22;29398;45.328;5.558;2022-07-06T03:02:22;18.40;83.00
7738;DHT22;29398;45.328;5.558;2022-07-06T03:03:23;18.40;83.10
7738;DHT22;29398;45.328;5.558;2022-07-06T03:04:26;18.40;83.20
7738;DHT22;29398;45.328;5.558;2022-07-06T03:05:27;18.40;83.20
7738;DHT22;29398;45.328;5.558;2022-07-06T03:06:29;18.40;83.20
7738;DHT22;29398;45.328;5.558;2022-07-06T03:07:31;18.30;83.40
7738;DHT22;29398;45.328;5.558;2022-07-06T03:08:33;18.30;83.60
7738;DHT22;29398;45.328;5.558;2022-07-06T03:09:37;18.30;83.60
7738;DHT22;29398;45.328;5.558;2022-07-06T03:10:39;18.30;83.70
7738;DHT22;29398;45.328;5.558;2022-07-06T03:11:41;18.20;83.60
7738;DHT22;29398;45.328;5.558;2022-07-06T03:12:43;18.20;83.60
7738;DHT22;29398;45.328;5.558;2022-07-06T03:13:44;18.30;84.00
7738;DHT22;29398;45.328;5.558;2022-07-06T03:14:47;18.30;83.80
7738;DHT22;29398;45.328;5.558;2022-07-06T03:15:49;18.30;83.90
7738;DHT22;29398;45.328;5.558;2022-07-06T03:16:51;18.30;83.70
7738;DHT22;29398;45.328;5.558;2022-07-06T03:17:53;18.30;83.90
7738;DHT22;29398;45.328;5.558;2022-07-06T03:18:55;18.40;83.70
7738;DHT22;29398;45.328;5.558;2022-07-06T03:19:57;18.40;83.40
7738;DHT22;29398;45.328;5.558;2022-07-06T03:20:59;18.40;83.40
7738;DHT22;29398;45.328;5.558;2022-07-06T03:22:01;18.40;83.40
7738;DHT22;29398;45.328;5.558;2022-07-06T03:23:03;18.40;83.50
7738;DHT22;29398;45.328;5.558;2022-07-06T03:24:05;18.40;83.80
7738;DHT22;29398;45.328;5.558;2022-07-06T03:25:09;18.40;83.90
7738;DHT22;29398;45.328;5.558;2022-07-06T03:26:12;18.30;84.40
7738;DHT22;29398;45.328;5.558;2022-07-06T03:27:15;18.30;84.90
7738;DHT22;29398;45.328;5.558;2022-07-06T03:28:16;18.30;84.60
7738;DHT22;29398;45.328;5.558;2022-07-06T03:29:19;18.20;84.60
7738;DHT22;29398;45.328;5.558;2022-07-06T03:30:21;18.20;85.00
7738;DHT22;29398;45.328;5.558;2022-07-06T03:31:28;18.20;85.10
7738;DHT22;29398;45.328;5.558;2022-07-06T03:32:29;18.10;85.10
7738;DHT22;29398;45.328;5.558;2022-07-06T03:33:33;18.10;85.50
7738;DHT22;29398;45.328;5.558;2022-07-06T03:34:34;18.00;86.20
7738;DHT22;29398;45.328;5.558;2022-07-06T03:35:36;18.00;86.20
7738;DHT22;29398;45.328;5.558;2022-07-06T03:36:40;18.00;86.40
7738;DHT22;29398;45.328;5.558;2022-07-06T03:37:42;18.00;85.90
7738;DHT22;29398;45.328;5.558;2022-07-06T03:38:44;18.00;86.20
7738;DHT22;29398;45.328;5.558;2022-07-06T03:39:46;18.00;86.10
7738;DHT22;29398;45.328;5.558;2022-07-06T03:40:48;18.00;86.00
7738;DHT22;29398;45.328;5.558;2022-07-06T03:41:51;18.00;85.80
7738;DHT22;29398;45.328;5.558;2022-07-06T03:42:53;18.00;86.00
7738;DHT22;29398;45.328;5.558;2022-07-06T03:43:56;18.00;86.10
7738;DHT22;29398;45.328;5.558;2022-07-06T03:44:57;18.00;86.20
7738;DHT22;29398;45.328;5.558;2022-07-06T03:46:00;18.00;86.20
7738;DHT22;29398;45.328;5.558;2022-07-06T03:47:02;18.00;86.50
7738;DHT22;29398;45.328;5.558;2022-07-06T03:48:05;18.10;86.50
7738;DHT22;29398;45.328;5.558;2022-07-06T03:49:08;18.10;86.40
7738;DHT22;29398;45.328;5.558;2022-07-06T03:50:11;18.10;86.40
7738;DHT22;29398;45.328;5.558;2022-07-06T03:51:13;18.10;86.30
7738;DHT22;29398;45.328;5.558;2022-07-06T03:52:15;18.10;85.70
7738;DHT22;29398;45.328;5.558;2022-07-06T03:53:24;18.00;85.70
7738;DHT22;29398;45.328;5.558;2022-07-06T03:54:27;18.00;86.30
7738;DHT22;29398;45.328;5.558;2022-07-06T03:55:31;17.90;86.10
7738;DHT22;29398;45.328;5.558;2022-07-06T03:56:39;17.80;86.40
7738;DHT22;29398;45.328;5.558;2022-07-06T03:57:45;17.80;86.50
7738;DHT22;29398;45.328;5.558;2022-07-06T03:58:50;17.80;86.50
7738;DHT22;29398;45.328;5.558;2022-07-06T03:59:53;17.80;86.10
7738;DHT22;29398;45.328;5.558;2022-07-06T04:00:57;17.90;86.00
7738;DHT22;29398;45.328;5.558;2022-07-06T04:01:58;17.80;86.20
7738;DHT22;29398;45.328;5.558;2022-07-06T04:03:00;17.90;86.10
7738;DHT22;29398;45.328;5.558;2022-07-06T04:04:05;17.90;86.00
7738;DHT22;29398;45.328;5.558;2022-07-06T04:05:09;17.90;85.70
7738;DHT22;29398;45.328;5.558;2022-07-06T04:06:11;17.90;85.90
7738;DHT22;29398;45.328;5.558;2022-07-06T04:07:13;17.80;86.10
7738;DHT22;29398;45.328;5.558;2022-07-06T04:08:15;17.80;86.10
7738;DHT22;29398;45.328;5.558;2022-07-06T04:09:22;17.80;86.20
7738;DHT22;29398;45.328;5.558;2022-07-06T04:10:24;17.80;86.20
7738;DHT22;29398;45.328;5.558;2022-07-06T04:11:26;17.80;86.30
7738;DHT22;29398;45.328;5.558;2022-07-06T04:12:29;17.80;85.70
7738;DHT22;29398;45.328;5.558;2022-07-06T04:13:30;17.80;86.10
7738;DHT22;29398;45.328;5.558;2022-07-06T04:14:33;17.90;86.20
7738;DHT22;29398;45.328;5.558;2022-07-06T04:15:35;17.90;86.00
7738;DHT22;29398;45.328;5.558;2022-07-06T04:16:38;17.90;85.70
7738;DHT22;29398;45.328;5.558;2022-07-06T04:17:39;18.00;85.90
7738;DHT22;29398;45.328;5.558;2022-07-06T04:18:56;18.00;85.90
7738;DHT22;29398;45.328;5.558;2022-07-06T04:19:58;18.00;86.00
7738;DHT22;29398;45.328;5.558;2022-07-06T04:21:00;17.90;85.90
7738;DHT22;29398;45.328;5.558;2022-07-06T04:22:05;18.00;86.00
7738;DHT22;29398;45.328;5.558;2022-07-06T04:23:06;18.00;86.00
7738;DHT22;29398;45.328;5.558;2022-07-06T04:24:08;17.90;86.10
7738;DHT22;29398;45.328;5.558;2022-07-06T04:25:10;18.00;86.20
7738;DHT22;29398;45.328;5.558;2022-07-06T04:26:12;18.00;86.10
7738;DHT22;29398;45.328;5.558;2022-07-06T04:27:15;18.00;86.30
7738;DHT22;29398;45.328;5.558;2022-07-06T04:28:17;18.00;86.50
7738;DHT22;29398;45.328;5.558;2022-07-06T04:29:20;18.10;86.50
7738;DHT22;29398;45.328;5.558;2022-07-06T04:30:23;18.10;86.50
7738;DHT22;29398;45.328;5.558;2022-07-06T04:31:24;18.10;86.60
7738;DHT22;29398;45.328;5.558;2022-07-06T04:32:26;18.10;86.50
7738;DHT22;29398;45.328;5.558;2022-07-06T04:33:28;18.00;86.50
7738;DHT22;29398;45.328;5.558;2022-07-06T04:34:30;18.10;86.80
7738;DHT22;29398;45.328;5.558;2022-07-06T04:35:32;18.10;86.90
7738;DHT22;29398;45.328;5.558;2022-07-06T04:36:34;18.10;86.90
7738;DHT22;29398;45.328;5.558;2022-07-06T04:37:35;18.10;87.20
7738;DHT22;29398;45.328;5.558;2022-07-06T04:38:38;18.10;86.90
7738;DHT22;29398;45.328;5.558;2022-07-06T04:39:41;18.10;86.70
7738;DHT22;29398;45.328;5.558;2022-07-06T04:40:43;18.20;87.00
7738;DHT22;29398;45.328;5.558;2022-07-06T04:41:49;18.20;87.20
7738;DHT22;29398;45.328;5.558;2022-07-06T04:42:51;18.20;87.10
7738;DHT22;29398;45.328;5.558;2022-07-06T04:43:55;18.30;87.40
7738;DHT22;29398;45.328;5.558;2022-07-06T04:44:57;18.30;87.10
7738;DHT22;29398;45.328;5.558;2022-07-06T04:45:58;18.30;87.30
7738;DHT22;29398;45.328;5.558;2022-07-06T04:47:02;18.30;87.20
7738;DHT22;29398;45.328;5.558;2022-07-06T04:48:04;18.30;87.30
7738;DHT22;29398;45.328;5.558;2022-07-06T04:49:07;18.30;87.10
7738;DHT22;29398;45.328;5.558;2022-07-06T04:50:09;18.30;87.20
7738;DHT22;29398;45.328;5.558;2022-07-06T04:51:11;18.30;87.20
7738;DHT22;29398;45.328;5.558;2022-07-06T04:52:13;18.30;87.40
7738;DHT22;29398;45.328;5.558;2022-07-06T04:53:15;18.30;87.40
7738;DHT22;29398;45.328;5.558;2022-07-06T04:54:17;18.30;87.50
7738;DHT22;29398;45.328;5.558;2022-07-06T04:55:19;18.30;87.80
7738;DHT22;29398;45.328;5.558;2022-07-06T04:56:21;18.30;88.00
7738;DHT22;29398;45.328;5.558;2022-07-06T04:57:24;18.40;88.20
7738;DHT22;29398;45.328;5.558;2022-07-06T04:58:28;18.40;88.30
7738;DHT22;29398;45.328;5.558;2022-07-06T04:59:31;18.40;87.90
7738;DHT22;29398;45.328;5.558;2022-07-06T05:00:33;18.40;87.70
7738;DHT22;29398;45.328;5.558;2022-07-06T05:01:36;18.50;87.70
7738;DHT22;29398;45.328;5.558;2022-07-06T05:02:37;18.50;88.00
7738;DHT22;29398;45.328;5.558;2022-07-06T05:03:40;18.50;87.60
7738;DHT22;29398;45.328;5.558;2022-07-06T05:04:43;18.50;87.70
7738;DHT22;29398;45.328;5.558;2022-07-06T05:05:45;18.50;88.00
7738;DHT22;29398;45.328;5.558;2022-07-06T05:06:47;18.50;88.10
7738;DHT22;29398;45.328;5.558;2022-07-06T05:07:48;18.60;88.20
7738;DHT22;29398;45.328;5.558;2022-07-06T05:08:51;18.60;88.30
7738;DHT22;29398;45.328;5.558;2022-07-06T05:09:52;18.70;88.40
7738;DHT22;29398;45.328;5.558;2022-07-06T05:10:54;18.70;88.30
7738;DHT22;29398;45.328;5.558;2022-07-06T05:11:57;18.70;88.20
7738;DHT22;29398;45.328;5.558;2022-07-06T05:12:59;18.50;88.10
7738;DHT22;29398;45.328;5.558;2022-07-06T05:14:02;18.80;88.00
7738;DHT22;29398;45.328;5.558;2022-07-06T05:15:06;18.90;88.00
7738;DHT22;29398;45.328;5.558;2022-07-06T05:16:09;18.90;88.20
7738;DHT22;29398;45.328;5.558;2022-07-06T05:17:12;18.90;88.00
7738;DHT22;29398;45.328;5.558;2022-07-06T05:18:13;19.00;87.70
7738;DHT22;29398;45.328;5.558;2022-07-06T05:19:16;19.00;88.10
7738;DHT22;29398;45.328;5.558;2022-07-06T05:20:19;19.10;88.00
7738;DHT22;29398;45.328;5.558;2022-07-06T05:21:22;19.10;87.40
7738;DHT22;29398;45.328;5.558;2022-07-06T05:22:24;19.10;87.50
7738;DHT22;29398;45.328;5.558;2022-07-06T05:23:27;19.10;87.50
7738;DHT22;29398;45.328;5.558;2022-07-06T05:24:30;19.20;87.50
7738;DHT22;29398;45.328;5.558;2022-07-06T05:25:32;19.20;87.50
7738;DHT22;29398;45.328;5.558;2022-07-06T05:26:33;19.20;87.40
7738;DHT22;29398;45.328;5.558;2022-07-06T05:27:36;19.30;87.50
7738;DHT22;29398;45.328;5.558;2022-07-06T05:28:38;19.40;87.50
7738;DHT22;29398;45.328;5.558;2022-07-06T05:29:43;19.40;88.30
7738;DHT22;29398;45.328;5.558;2022-07-06T05:30:46;19.40;89.30
7738;DHT22;29398;45.328;5.558;2022-07-06T05:31:48;19.40;89.50
7738;DHT22;29398;45.328;5.558;2022-07-06T05:32:50;19.40;89.90
7738;DHT22;29398;45.328;5.558;2022-07-06T05:33:52;19.70;90.10
7738;DHT22;29398;45.328;5.558;2022-07-06T05:34:53;19.40;90.00
7738;DHT22;29398;45.328;5.558;2022-07-06T05:35:56;19.50;90.30
7738;DHT22;29398;45.328;5.558;2022-07-06T05:37:00;19.50;90.20
7738;DHT22;29398;45.328;5.558;2022-07-06T05:38:03;19.50;90.00
7738;DHT22;29398;45.328;5.558;2022-07-06T05:39:05;19.50;90.00
7738;DHT22;29398;45.328;5.558;2022-07-06T05:40:08;19.40;90.00
7738;DHT22;29398;45.328;5.558;2022-07-06T05:41:11;19.40;90.40
7738;DHT22;29398;45.328;5.558;2022-07-06T05:42:13;19.30;90.60
7738;DHT22;29398;45.328;5.558;2022-07-06T05:43:16;19.40;90.90
7738;DHT22;29398;45.328;5.558;2022-07-06T05:44:18;19.40;90.70
7738;DHT22;29398;45.328;5.558;2022-07-06T05:45:21;19.40;90.50
7738;DHT22;29398;45.328;5.558;2022-07-06T05:46:25;19.50;90.20
7738;DHT22;29398;45.328;5.558;2022-07-06T05:47:28;19.40;90.40
7738;DHT22;29398;45.328;5.558;2022-07-06T05:48:47;19.40;90.40
7738;DHT22;29398;45.328;5.558;2022-07-06T05:50:08;19.40;90.10
7738;DHT22;29398;45.328;5.558;2022-07-06T05:51:25;19.50;89.90
7738;DHT22;29398;45.328;5.558;2022-07-06T05:52:28;19.60;89.90
7738;DHT22;29398;45.328;5.558;2022-07-06T05:53:29;19.70;89.00
7738;DHT22;29398;45.328;5.558;2022-07-06T05:54:31;19.70;88.60
7738;DHT22;29398;45.328;5.558;2022-07-06T05:55:33;19.80;88.50
7738;DHT22;29398;45.328;5.558;2022-07-06T05:56:37;19.90;89.10
7738;DHT22;29398;45.328;5.558;2022-07-06T05:57:39;20.00;88.00
7738;DHT22;29398;45.328;5.558;2022-07-06T05:58:45;20.10;88.30
7738;DHT22;29398;45.328;5.558;2022-07-06T05:59:46;20.30;88.20
7738;DHT22;29398;45.328;5.558;2022-07-06T06:00:48;20.40;88.50
7738;DHT22;29398;45.328;5.558;2022-07-06T06:01:54;20.50;86.40
7738;DHT22;29398;45.328;5.558;2022-07-06T06:02:59;20.50;85.90
7738;DHT22;29398;45.328;5.558;2022-07-06T06:04:00;20.60;85.90
7738;DHT22;29398;45.328;5.558;2022-07-06T06:05:03;20.60;84.80
7738;DHT22;29398;45.328;5.558;2022-07-06T06:06:05;20.60;84.50
7738;DHT22;29398;45.328;5.558;2022-07-06T06:07:07;20.60;84.90
7738;DHT22;29398;45.328;5.558;2022-07-06T06:08:09;20.70;84.00
7738;DHT22;29398;45.328;5.558;2022-07-06T06:09:11;20.70;84.10
7738;DHT22;29398;45.328;5.558;2022-07-06T06:10:15;20.70;83.80
7738;DHT22;29398;45.328;5.558;2022-07-06T06:11:17;20.80;82.80
7738;DHT22;29398;45.328;5.558;2022-07-06T06:12:19;20.80;79.90
7738;DHT22;29398;45.328;5.558;2022-07-06T06:13:20;20.80;81.30
7738;DHT22;29398;45.328;5.558;2022-07-06T06:14:23;20.90;80.90
7738;DHT22;29398;45.328;5.558;2022-07-06T06:15:24;20.90;81.80
7738;DHT22;29398;45.328;5.558;2022-07-06T06:16:27;20.90;80.40
7738;DHT22;29398;45.328;5.558;2022-07-06T06:17:29;21.00;80.30
7738;DHT22;29398;45.328;5.558;2022-07-06T06:18:31;21.00;79.30
7738;DHT22;29398;45.328;5.558;2022-07-06T06:19:33;21.00;79.20
7738;DHT22;29398;45.328;5.558;2022-07-06T06:20:37;21.10;81.30
7738;DHT22;29398;45.328;5.558;2022-07-06T06:21:38;21.10;81.30
7738;DHT22;29398;45.328;5.558;2022-07-06T06:22:47;21.10;80.70
7738;DHT22;29398;45.328;5.558;2022-07-06T06:23:48;21.10;79.10
7738;DHT22;29398;45.328;5.558;2022-07-06T06:24:52;21.10;79.30
7738;DHT22;29398;45.328;5.558;2022-07-06T06:25:53;21.20;78.30
7738;DHT22;29398;45.328;5.558;2022-07-06T06:26:55;21.20;78.90
7738;DHT22;29398;45.328;5.558;2022-07-06T06:27:56;21.20;79.50
7738;DHT22;29398;45.328;5.558;2022-07-06T06:28:58;21.30;78.60
7738;DHT22;29398;45.328;5.558;2022-07-06T06:30:00;21.30;78.60
7738;DHT22;29398;45.328;5.558;2022-07-06T06:31:02;21.30;79.20
7738;DHT22;29398;45.328;5.558;2022-07-06T06:32:05;21.40;79.90
7738;DHT22;29398;45.328;5.558;2022-07-06T06:33:12;21.40;79.30
7738;DHT22;29398;45.328;5.558;2022-07-06T06:34:14;21.40;78.10
7738;DHT22;29398;45.328;5.558;2022-07-06T06:35:15;21.40;78.50
7738;DHT22;29398;45.328;5.558;2022-07-06T06:36:17;21.50;77.90
7738;DHT22;29398;45.328;5.558;2022-07-06T06:37:18;21.40;78.30
7738;DHT22;29398;45.328;5.558;2022-07-06T06:38:22;21.50;79.90
7738;DHT22;29398;45.328;5.558;2022-07-06T06:39:23;21.50;80.10
7738;DHT22;29398;45.328;5.558;2022-07-06T06:40:25;21.50;81.00
7738;DHT22;29398;45.328;5.558;2022-07-06T06:41:26;21.60;80.90